createdAt,value
2024-05-09T00:00:35.998Z,100779.69
2024-05-09T00:01:10.217Z,100779.69
2024-05-09T00:01:41.072Z,100777.78
2024-05-09T00:02:11.963Z,100781.88
2024-05-09T00:02:43.140Z,100776.56
2024-05-09T00:03:14.086Z,100782.41
2024-05-09T00:03:45.782Z,100783.03
2024-05-09T00:04:16.638Z,100777.78
2024-05-09T00:04:47.542Z,100784.94
2024-05-09T00:05:18.433Z,100773.16
2024-05-09T00:05:49.325Z,100779.69
2024-05-09T00:06:20.165Z,100776.13
2024-05-09T00:06:50.965Z,100781.16
2024-05-09T00:07:21.759Z,100783.25
2024-05-09T00:07:52.612Z,100781.59
2024-05-09T00:08:23.622Z,100774.63
2024-05-09T00:08:54.482Z,100779.88
2024-05-09T00:09:25.272Z,100779.47
2024-05-09T00:09:56.070Z,100779.03
2024-05-09T00:10:35.054Z,100778.44
2024-05-09T00:11:08.866Z,100773.56
2024-05-09T00:11:39.759Z,100779.06
2024-05-09T00:12:10.742Z,100776.94
2024-05-09T00:12:41.616Z,100783.44
2024-05-09T00:13:12.393Z,100774.44
2024-05-09T00:13:43.284Z,100780.97
2024-05-09T00:14:14.145Z,100777.06
2024-05-09T00:14:44.946Z,100778.31
2024-05-09T00:15:15.728Z,100776.19
2024-05-09T00:15:46.510Z,100771.63
2024-05-09T00:16:17.304Z,100777.84
2024-05-09T00:16:48.662Z,100775.97
2024-05-09T00:17:19.592Z,100774.72
2024-05-09T00:17:50.613Z,100775.78
2024-05-09T00:18:21.791Z,100769.88
2024-05-09T00:18:52.754Z,100784.38
2024-05-09T00:19:23.689Z,100773.66
2024-05-09T00:19:54.550Z,100763.13
2024-05-09T00:20:33.224Z,100767.59
2024-05-09T00:21:09.610Z,100776.25
2024-05-09T00:21:43.852Z,100772.22
2024-05-09T00:22:14.667Z,100773.09
2024-05-09T00:22:45.468Z,100774.34
2024-05-09T00:23:16.392Z,100768.44
2024-05-09T00:23:47.240Z,100766.97
2024-05-09T00:24:18.039Z,100768.44
2024-05-09T00:24:48.871Z,100769.88
2024-05-09T00:25:19.665Z,100765.88
2024-05-09T00:25:50.511Z,100780.75
2024-05-09T00:26:23.008Z,100764.81
2024-05-09T00:26:53.922Z,100765.88
2024-05-09T00:27:24.742Z,100774.50
2024-05-09T00:27:55.550Z,100764.25
2024-05-09T00:28:26.337Z,100765.69
2024-05-09T00:28:57.211Z,100767.75
2024-05-09T00:29:28.142Z,100773.66
2024-05-09T00:29:58.998Z,100766.75
2024-05-09T00:30:34.212Z,100769.28
2024-05-09T00:31:07.210Z,100761.47
2024-05-09T00:31:38.017Z,100766.09
2024-05-09T00:32:08.940Z,100772.44
2024-05-09T00:32:39.902Z,100771.63
2024-05-09T00:33:11.740Z,100772.06
2024-05-09T00:33:42.940Z,100777.72
2024-05-09T00:34:14.040Z,100768.66
2024-05-09T00:34:45.182Z,100769.50
2024-05-09T00:35:16.174Z,100772.91
2024-05-09T00:35:47.037Z,100768.06
2024-05-09T00:36:18.092Z,100773.31
2024-05-09T00:36:48.913Z,100774.59
2024-05-09T00:37:20.831Z,100768.91
2024-05-09T00:37:51.762Z,100777.09
2024-05-09T00:38:22.687Z,100769.09
2024-05-09T00:38:53.540Z,100770.56
2024-05-09T00:39:24.370Z,100767.84
2024-05-09T00:39:55.159Z,100778.56
2024-05-09T00:40:35.703Z,100763.19
2024-05-09T00:41:10.692Z,100765.69
2024-05-09T00:41:41.640Z,100772.00
2024-05-09T00:42:12.479Z,100766.16
2024-05-09T00:42:46.013Z,100770.16
2024-05-09T00:43:16.869Z,100766.16
2024-05-09T00:43:47.744Z,100764.69
2024-05-09T00:44:18.576Z,100772.00
2024-05-09T00:44:49.480Z,100767.59
2024-05-09T00:45:20.274Z,100772.44
2024-05-09T00:45:52.588Z,100775.19
2024-05-09T00:46:23.378Z,100766.19
2024-05-09T00:46:55.143Z,100766.78
2024-05-09T00:47:26.115Z,100771.41
2024-05-09T00:47:59.089Z,100772.97
2024-05-09T00:48:30.664Z,100773.75
2024-05-09T00:49:01.886Z,100770.34
2024-05-09T00:49:32.963Z,100773.97
2024-05-09T00:50:05.503Z,100777.09
2024-05-09T00:50:42.623Z,100769.09
2024-05-09T00:51:13.723Z,100771.00
2024-05-09T00:51:44.681Z,100773.06
2024-05-09T00:52:16.261Z,100773.75
2024-05-09T00:52:48.219Z,100772.25
2024-05-09T00:53:19.310Z,100774.81
2024-05-09T00:53:50.184Z,100768.28
2024-05-09T00:54:21.699Z,100768.75
2024-05-09T00:54:54.748Z,100775.44
2024-05-09T00:55:25.736Z,100776.28
2024-05-09T00:55:56.668Z,100766.19
2024-05-09T00:56:27.940Z,100775.63
2024-05-09T00:57:01.037Z,100771.84
2024-05-09T00:57:31.881Z,100782.56
2024-05-09T00:58:04.611Z,100772.91
2024-05-09T00:58:35.683Z,100774.56
2024-05-09T00:59:07.079Z,100772.44
2024-05-09T00:59:38.225Z,100771.25
2024-05-09T01:00:18.457Z,100773.75
2024-05-09T01:00:59.421Z,100776.31
2024-05-09T01:01:30.783Z,100770.88
2024-05-09T01:02:01.810Z,100776.09
2024-05-09T01:02:32.818Z,100777.09
2024-05-09T01:03:04.231Z,100762.59
2024-05-09T01:03:35.403Z,100764.25
2024-05-09T01:04:07.027Z,100764.47
2024-05-09T01:04:37.965Z,100773.97
2024-05-09T01:05:08.961Z,100773.72
2024-05-09T01:05:40.441Z,100768.28
2024-05-09T01:06:11.617Z,100766.59
2024-05-09T01:06:42.515Z,100768.28
2024-05-09T01:07:13.389Z,100768.28
2024-05-09T01:07:44.259Z,100772.91
2024-05-09T01:08:15.187Z,100772.91
2024-05-09T01:08:46.560Z,100766.84
2024-05-09T01:09:17.386Z,100763.44
2024-05-09T01:09:48.180Z,100762.84
2024-05-09T01:10:27.555Z,100766.84
2024-05-09T01:11:03.082Z,100769.81
2024-05-09T01:11:38.007Z,100763.50
2024-05-09T01:12:09.099Z,100769.63
2024-05-09T01:12:40.251Z,100766.69
2024-05-09T01:13:11.440Z,100774.28
2024-05-09T01:13:43.785Z,100771.56
2024-05-09T01:14:14.744Z,100766.72
2024-05-09T01:14:45.610Z,100770.09
2024-05-09T01:15:16.519Z,100773.44
2024-05-09T01:15:48.983Z,100762.09
2024-05-09T01:16:19.888Z,100776.53
2024-05-09T01:16:50.699Z,100773.44
2024-05-09T01:17:21.721Z,100772.16
2024-05-09T01:17:54.295Z,100766.50
2024-05-09T01:18:26.605Z,100772.63
2024-05-09T01:18:58.091Z,100779.53
2024-05-09T01:19:29.759Z,100772.75
2024-05-09T01:20:00.712Z,100778.84
2024-05-09T01:20:39.934Z,100776.28
2024-05-09T01:21:14.278Z,100783.41
2024-05-09T01:21:45.176Z,100781.28
2024-05-09T01:22:15.965Z,100777.09
2024-05-09T01:22:46.908Z,100778.16
2024-05-09T01:23:17.723Z,100775.53
2024-05-09T01:23:48.531Z,100779.97
2024-05-09T01:24:19.388Z,100778.06
2024-05-09T01:24:50.927Z,100774.25
2024-05-09T01:25:21.755Z,100769.47
2024-05-09T01:25:52.572Z,100778.91
2024-05-09T01:26:23.431Z,100772.63
2024-05-09T01:26:54.280Z,100781.00
2024-05-09T01:27:25.078Z,100771.75
2024-05-09T01:27:55.923Z,100784.34
2024-05-09T01:28:26.720Z,100777.81
2024-05-09T01:28:57.581Z,100772.38
2024-05-09T01:29:28.512Z,100773.22
2024-05-09T01:29:59.626Z,100768.22
2024-05-09T01:30:34.564Z,100775.75
2024-05-09T01:31:07.680Z,100777.00
2024-05-09T01:31:38.485Z,100774.50
2024-05-09T01:32:09.402Z,100775.97
2024-05-09T01:32:40.470Z,100771.97
2024-05-09T01:33:12.532Z,100770.31
2024-05-09T01:33:44.216Z,100773.88
2024-05-09T01:34:15.230Z,100773.88
2024-05-09T01:34:46.116Z,100775.13
2024-05-09T01:35:22.272Z,100775.56
2024-05-09T01:35:53.172Z,100774.28
2024-05-09T01:36:24.007Z,100770.91
2024-05-09T01:36:54.923Z,100774.03
2024-05-09T01:37:25.747Z,100776.78
2024-05-09T01:37:56.591Z,100768.78
2024-05-09T01:38:27.423Z,100770.88
2024-05-09T01:38:58.207Z,100775.72
2024-05-09T01:39:28.990Z,100774.44
2024-05-09T01:39:59.777Z,100773.81
2024-05-09T01:41:03.761Z,100775.25
2024-05-09T01:41:37.565Z,100773.59
2024-05-09T01:42:08.403Z,100771.25
2024-05-09T01:42:39.215Z,100776.94
2024-05-09T01:43:11.249Z,100765.56
2024-05-09T01:43:42.904Z,100779.66
2024-05-09T01:44:13.878Z,100777.38
2024-05-09T01:44:45.742Z,100769.63
2024-05-09T01:45:17.386Z,100770.03
2024-05-09T01:45:48.235Z,100774.66
2024-05-09T01:46:19.067Z,100773.38
2024-05-09T01:46:49.951Z,100764.63
2024-05-09T01:47:20.939Z,100772.38
2024-05-09T01:47:52.076Z,100776.78
2024-05-09T01:48:23.176Z,100774.47
2024-05-09T01:48:54.131Z,100778.09
2024-05-09T01:49:25.193Z,100772.84
2024-05-09T01:49:56.139Z,100769.25
2024-05-09T01:50:36.552Z,100769.25
2024-05-09T01:51:11.483Z,100770.91
2024-05-09T01:51:42.362Z,100774.66
2024-05-09T01:52:13.243Z,100770.88
2024-05-09T01:52:44.075Z,100770.03
2024-05-09T01:53:15.449Z,100771.91
2024-05-09T01:53:46.626Z,100769.47
2024-05-09T01:54:17.415Z,100774.28
2024-05-09T01:54:48.209Z,100773.44
2024-05-09T01:55:18.996Z,100774.47
2024-05-09T01:55:49.817Z,100769.66
2024-05-09T01:56:20.709Z,100774.50
2024-05-09T01:56:51.512Z,100776.41
2024-05-09T01:57:22.357Z,100773.06
2024-05-09T01:57:53.158Z,100776.41
2024-05-09T01:58:24.138Z,100778.91
2024-05-09T01:58:55.025Z,100777.66
2024-05-09T01:59:25.997Z,100778.69
2024-05-09T01:59:56.836Z,100777.66
2024-05-09T02:00:36.144Z,100774.28
2024-05-09T02:01:10.615Z,100774.72
2024-05-09T02:01:56.138Z,100771.78
2024-05-09T02:02:28.550Z,100773.22
2024-05-09T02:02:59.607Z,100772.22
2024-05-09T02:03:30.641Z,100766.75
2024-05-09T02:04:01.885Z,100768.81
2024-05-09T02:04:33.088Z,100777.69
2024-05-09T02:05:04.481Z,100771.78
2024-05-09T02:05:35.412Z,100766.31
2024-05-09T02:06:06.573Z,100776.41
2024-05-09T02:06:40.910Z,100775.34
2024-05-09T02:07:11.802Z,100773.44
2024-05-09T02:07:42.651Z,100775.63
2024-05-09T02:08:14.924Z,100771.41
2024-05-09T02:08:45.864Z,100772.22
2024-05-09T02:09:16.726Z,100765.69
2024-05-09T02:09:50.769Z,100773.91
2024-05-09T02:10:26.499Z,100772.84
2024-05-09T02:11:03.274Z,100777.03
2024-05-09T02:11:42.734Z,100779.59
2024-05-09T02:12:13.827Z,100774.78
2024-05-09T02:12:44.731Z,100768.06
2024-05-09T02:13:16.078Z,100769.28
2024-05-09T02:13:47.192Z,100768.44
2024-05-09T02:14:19.241Z,100775.13
2024-05-09T02:14:50.872Z,100771.34
2024-05-09T02:15:21.657Z,100769.50
2024-05-09T02:15:52.615Z,100774.13
2024-05-09T02:16:23.453Z,100772.84
2024-05-09T02:16:54.323Z,100773.06
2024-05-09T02:17:25.308Z,100762.63
2024-05-09T02:17:56.365Z,100770.59
2024-05-09T02:18:27.458Z,100758.88
2024-05-09T02:18:58.533Z,100769.75
2024-05-09T02:19:29.484Z,100760.09
2024-05-09T02:20:00.393Z,100755.69
2024-05-09T02:20:36.010Z,100764.03
2024-05-09T02:21:08.152Z,100762.16
2024-05-09T02:21:39.347Z,100761.31
2024-05-09T02:22:10.177Z,100762.63
2024-05-09T02:22:40.992Z,100762.38
2024-05-09T02:23:12.913Z,100766.78
2024-05-09T02:23:43.953Z,100767.63
2024-05-09T02:24:14.785Z,100770.56
2024-05-09T02:24:45.586Z,100769.72
2024-05-09T02:25:16.512Z,100776.19
2024-05-09T02:25:47.322Z,100768.84
2024-05-09T02:26:18.179Z,100771.78
2024-05-09T02:26:48.993Z,100765.97
2024-05-09T02:27:19.789Z,100768.06
2024-05-09T02:27:50.595Z,100770.41
2024-05-09T02:28:21.382Z,100765.13
2024-05-09T02:28:52.620Z,100766.41
2024-05-09T02:29:23.433Z,100771.47
2024-05-09T02:29:54.237Z,100769.13
2024-05-09T02:30:35.079Z,100763.31
2024-05-09T02:31:13.184Z,100768.13
2024-05-09T02:31:44.258Z,100771.06
2024-05-09T02:32:15.246Z,100771.06
2024-05-09T02:32:46.453Z,100772.31
2024-05-09T02:33:17.500Z,100768.97
2024-05-09T02:33:48.653Z,100765.38
2024-05-09T02:34:19.900Z,100768.97
2024-05-09T02:34:50.770Z,100759.09
2024-05-09T02:35:21.680Z,100761.16
2024-05-09T02:35:52.538Z,100767.66
2024-05-09T02:36:23.559Z,100765.09
2024-05-09T02:36:55.066Z,100768.44
2024-05-09T02:37:25.872Z,100767.00
2024-05-09T02:37:56.999Z,100763.44
2024-05-09T02:38:27.834Z,100773.75
2024-05-09T02:38:58.654Z,100767.47
2024-05-09T02:39:29.444Z,100763.22
2024-05-09T02:40:00.235Z,100766.38
2024-05-09T02:40:37.414Z,100762.22
2024-05-09T02:41:10.039Z,100765.63
2024-05-09T02:41:40.878Z,100769.56
2024-05-09T02:42:11.676Z,100764.13
2024-05-09T02:42:42.478Z,100769.78
2024-05-09T02:43:13.443Z,100765.56
2024-05-09T02:43:44.280Z,100767.69
2024-05-09T02:44:15.149Z,100766.63
2024-05-09T02:44:46.060Z,100764.72
2024-05-09T02:45:16.848Z,100762.22
2024-05-09T02:45:47.636Z,100764.78
2024-05-09T02:46:18.457Z,100760.38
2024-05-09T02:46:49.318Z,100763.94
2024-05-09T02:47:20.342Z,100765.84
2024-05-09T02:47:51.362Z,100762.66
2024-05-09T02:48:22.622Z,100762.72
2024-05-09T02:48:53.654Z,100764.81
2024-05-09T02:49:24.728Z,100766.88
2024-05-09T02:49:55.633Z,100769.63
2024-05-09T02:50:34.196Z,100767.91
2024-05-09T02:51:09.489Z,100771.69
2024-05-09T02:51:40.379Z,100770.91
2024-05-09T02:52:11.164Z,100771.75
2024-05-09T02:52:41.970Z,100767.13
2024-05-09T02:53:13.317Z,100768.56
2024-05-09T02:53:44.354Z,100764.59
2024-05-09T02:54:15.220Z,100772.38
2024-05-09T02:54:46.007Z,100775.53
2024-05-09T02:55:16.796Z,100767.97
2024-05-09T02:55:47.645Z,100766.50
2024-05-09T02:56:18.495Z,100768.13
2024-05-09T02:56:49.289Z,100763.09
2024-05-09T02:57:20.087Z,100772.34
2024-05-09T02:57:50.890Z,100765.63
2024-05-09T02:58:21.672Z,100767.75
2024-05-09T02:58:52.568Z,100767.75
2024-05-09T02:59:23.477Z,100760.59
2024-05-09T02:59:54.368Z,100768.16
2024-05-09T03:00:34.440Z,100758.09
2024-05-09T03:01:09.765Z,100753.69
2024-05-09T03:01:40.700Z,100772.81
2024-05-09T03:02:12.610Z,100764.88
2024-05-09T03:02:43.630Z,100766.94
2024-05-09T03:03:15.748Z,100761.53
2024-05-09T03:03:49.230Z,100765.09
2024-05-09T03:04:20.209Z,100766.09
2024-05-09T03:04:51.146Z,100763.19
2024-05-09T03:05:22.145Z,100764.38
2024-05-09T03:05:53.034Z,100768.19
2024-05-09T03:06:23.835Z,100766.72
2024-05-09T03:06:54.618Z,100764.38
2024-05-09T03:07:25.421Z,100762.97
2024-05-09T03:07:56.270Z,100753.34
2024-05-09T03:08:27.134Z,100757.69
2024-05-09T03:08:57.992Z,100764.88
2024-05-09T03:09:28.796Z,100759.41
2024-05-09T03:09:59.593Z,100761.53
2024-05-09T03:10:35.691Z,100767.41
2024-05-09T03:11:08.753Z,100759.84
2024-05-09T03:11:39.704Z,100763.81
2024-05-09T03:12:10.735Z,100758.34
2024-05-09T03:12:41.639Z,100765.31
2024-05-09T03:13:14.889Z,100761.97
2024-05-09T03:13:46.805Z,100761.31
2024-05-09T03:14:18.450Z,100764.03
2024-05-09T03:14:49.717Z,100763.63
2024-05-09T03:15:23.138Z,100758.78
2024-05-09T03:15:53.934Z,100762.31
2024-05-09T03:16:24.712Z,100763.63
2024-05-09T03:16:55.575Z,100760.69
2024-05-09T03:17:26.563Z,100768.88
2024-05-09T03:17:58.971Z,100758.84
2024-05-09T03:18:30.055Z,100763.28
2024-05-09T03:19:01.012Z,100763.50
2024-05-09T03:19:34.314Z,100759.91
2024-05-09T03:20:11.513Z,100762.63
2024-05-09T03:20:45.536Z,100757.16
2024-05-09T03:21:16.428Z,100748.97
2024-05-09T03:21:47.272Z,100756.34
2024-05-09T03:22:18.073Z,100754.25
2024-05-09T03:22:49.008Z,100761.34
2024-05-09T03:23:19.897Z,100754.19
2024-05-09T03:23:50.782Z,100764.09
2024-05-09T03:24:21.584Z,100755.91
2024-05-09T03:24:52.448Z,100758.22
2024-05-09T03:25:23.241Z,100765.34
2024-05-09T03:25:54.221Z,100765.78
2024-05-09T03:26:25.158Z,100765.97
2024-05-09T03:26:56.090Z,100766.59
2024-05-09T03:27:26.879Z,100767.06
2024-05-09T03:27:58.075Z,100764.09
2024-05-09T03:28:28.859Z,100756.72
2024-05-09T03:28:59.729Z,100766.16
2024-05-09T03:29:30.696Z,100768.25
2024-05-09T03:30:01.594Z,100772.50
2024-05-09T03:30:39.781Z,100768.69
2024-05-09T03:31:13.286Z,100761.34
2024-05-09T03:31:44.300Z,100760.78
2024-05-09T03:32:15.218Z,100760.50
2024-05-09T03:32:46.283Z,100757.56
2024-05-09T03:33:18.651Z,100764.69
2024-05-09T03:33:50.952Z,100760.25
2024-05-09T03:34:21.814Z,100768.69
2024-05-09T03:34:52.645Z,100763.66
2024-05-09T03:35:23.793Z,100767.00
2024-05-09T03:35:54.743Z,100759.47
2024-05-09T03:36:26.112Z,100760.06
2024-05-09T03:36:56.896Z,100761.13
2024-05-09T03:37:27.702Z,100762.59
2024-05-09T03:37:58.550Z,100763.03
2024-05-09T03:38:29.664Z,100771.81
2024-05-09T03:39:00.566Z,100765.09
2024-05-09T03:39:31.988Z,100767.44
2024-05-09T03:40:03.092Z,100768.66
2024-05-09T03:40:33.909Z,100762.19
2024-05-09T03:41:04.780Z,100761.34
2024-05-09T03:41:35.859Z,100760.13
2024-05-09T03:42:07.034Z,100761.53
2024-05-09T03:42:40.529Z,100762.59
2024-05-09T03:43:12.148Z,100758.41
2024-05-09T03:43:43.143Z,100762.00
2024-05-09T03:44:13.984Z,100770.38
2024-05-09T03:44:44.812Z,100764.56
2024-05-09T03:45:15.815Z,100762.44
2024-05-09T03:45:47.950Z,100773.56
2024-05-09T03:46:18.747Z,100764.13
2024-05-09T03:46:49.823Z,100769.34
2024-05-09T03:47:20.792Z,100769.53
2024-05-09T03:47:52.094Z,100767.91
2024-05-09T03:48:23.532Z,100767.91
2024-05-09T03:48:54.751Z,100768.34
2024-05-09T03:49:25.904Z,100774.63
2024-05-09T03:49:56.896Z,100778.22
2024-05-09T03:50:33.713Z,100774.63
2024-05-09T03:51:06.663Z,100770.63
2024-05-09T03:51:37.507Z,100771.06
2024-05-09T03:52:08.295Z,100772.13
2024-05-09T03:52:39.092Z,100783.44
2024-05-09T03:53:11.430Z,100775.06
2024-05-09T03:53:42.455Z,100783.88
2024-05-09T03:54:13.351Z,100773.16
2024-05-09T03:54:47.891Z,100772.97
2024-05-09T03:55:18.801Z,100773.56
2024-05-09T03:55:49.656Z,100778.84
2024-05-09T03:56:20.522Z,100782.41
2024-05-09T03:56:51.426Z,100776.13
2024-05-09T03:57:22.221Z,100780.31
2024-05-09T03:57:53.039Z,100773.34
2024-05-09T03:58:23.856Z,100777.09
2024-05-09T03:58:55.048Z,100772.13
2024-05-09T03:59:26.030Z,100775.91
2024-05-09T03:59:56.864Z,100779.88
2024-05-09T04:00:35.241Z,100779.69
2024-05-09T04:01:10.631Z,100779.69
2024-05-09T04:01:41.562Z,100777.56
2024-05-09T04:02:12.605Z,100787.22
2024-05-09T04:02:46.689Z,100781.53
2024-05-09T04:03:18.022Z,100782.38
2024-05-09T04:03:49.266Z,100779.66
2024-05-09T04:04:20.180Z,100778.38
2024-05-09T04:04:51.235Z,100780.66
2024-05-09T04:05:22.439Z,100786.56
2024-05-09T04:05:53.283Z,100784.88
2024-05-09T04:06:25.541Z,100777.31
2024-05-09T04:06:56.324Z,100777.09
2024-05-09T04:07:27.179Z,100775.84
2024-05-09T04:07:58.060Z,100777.53
2024-05-09T04:08:29.025Z,100777.31
2024-05-09T04:08:59.843Z,100778.38
2024-05-09T04:09:30.641Z,100783.88
2024-05-09T04:10:01.430Z,100785.78
2024-05-09T04:10:34.135Z,100789.75
2024-05-09T04:11:06.062Z,100786.81
2024-05-09T04:11:37.124Z,100786.16
2024-05-09T04:12:08.011Z,100787.00
2024-05-09T04:12:38.911Z,100785.53
2024-05-09T04:13:09.868Z,100788.50
2024-05-09T04:13:40.728Z,100780.31
2024-05-09T04:14:11.523Z,100786.81
2024-05-09T04:14:42.394Z,100791.41
2024-05-09T04:15:14.011Z,100790.16
2024-05-09T04:15:44.808Z,100798.13
2024-05-09T04:16:15.640Z,100793.72
2024-05-09T04:16:46.470Z,100792.47
2024-05-09T04:17:17.365Z,100790.81
2024-05-09T04:17:50.304Z,100798.34
2024-05-09T04:18:21.483Z,100785.75
2024-05-09T04:18:52.442Z,100789.78
2024-05-09T04:19:23.402Z,100794.78
2024-05-09T04:19:54.729Z,100793.94
2024-05-09T04:20:35.972Z,100794.34
2024-05-09T04:21:10.378Z,100798.56
2024-05-09T04:21:41.275Z,100802.97
2024-05-09T04:22:12.150Z,100797.50
2024-05-09T04:22:42.965Z,100799.59
2024-05-09T04:23:14.498Z,100794.09
2024-05-09T04:23:45.650Z,100805.00
2024-05-09T04:24:16.470Z,100803.78
2024-05-09T04:24:47.573Z,100801.88
2024-05-09T04:25:18.374Z,100811.53
2024-05-09T04:25:49.266Z,100808.97
2024-05-09T04:26:20.129Z,100815.06
2024-05-09T04:26:50.957Z,100798.91
2024-05-09T04:27:21.814Z,100795.56
2024-05-09T04:27:54.677Z,100808.13
2024-05-09T04:28:25.540Z,100805.19
2024-05-09T04:28:56.349Z,100797.63
2024-05-09T04:29:27.268Z,100808.94
2024-05-09T04:29:58.141Z,100806.69
2024-05-09T04:30:36.646Z,100800.16
2024-05-09T04:31:10.488Z,100804.34
2024-05-09T04:31:41.290Z,100798.91
2024-05-09T04:32:12.311Z,100811.75
2024-05-09T04:32:43.275Z,100801.47
2024-05-09T04:33:15.035Z,100810.06
2024-05-09T04:33:46.622Z,100800.38
2024-05-09T04:34:17.997Z,100799.94
2024-05-09T04:34:48.848Z,100806.69
2024-05-09T04:35:21.347Z,100805.41
2024-05-09T04:35:52.258Z,100808.94
2024-05-09T04:36:23.298Z,100794.69
2024-05-09T04:36:54.141Z,100797.22
2024-05-09T04:37:25.264Z,100804.34
2024-05-09T04:37:56.114Z,100799.72
2024-05-09T04:38:28.889Z,100803.13
2024-05-09T04:38:59.740Z,100806.03
2024-05-09T04:39:30.537Z,100802.88
2024-05-09T04:40:01.333Z,100805.38
2024-05-09T04:40:35.389Z,100800.94
2024-05-09T04:41:07.859Z,100801.38
2024-05-09T04:41:38.837Z,100800.09
2024-05-09T04:42:09.693Z,100810.66
2024-05-09T04:42:40.639Z,100813.97
2024-05-09T04:43:16.234Z,100816.50
2024-05-09T04:43:49.702Z,100809.56
2024-05-09T04:44:20.595Z,100819.81
2024-05-09T04:44:52.985Z,100804.50
2024-05-09T04:45:24.882Z,100809.91
2024-05-09T04:45:55.679Z,100812.63
2024-05-09T04:46:26.467Z,100811.59
2024-05-09T04:46:57.294Z,100812.81
2024-05-09T04:47:28.398Z,100810.53
2024-05-09T04:47:59.982Z,100811.41
2024-05-09T04:48:33.903Z,100818.31
2024-05-09T04:49:04.934Z,100814.97
2024-05-09T04:49:36.005Z,100812.03
2024-05-09T04:50:11.385Z,100812.03
2024-05-09T04:50:42.686Z,100815.81
2024-05-09T04:51:13.676Z,100812.63
2024-05-09T04:51:44.503Z,100814.31
2024-05-09T04:52:15.294Z,100818.72
2024-05-09T04:52:46.205Z,100820.22
2024-05-09T04:53:17.394Z,100819.38
2024-05-09T04:53:48.451Z,100824.41
2024-05-09T04:54:29.978Z,100818.50
2024-05-09T04:55:06.752Z,100818.31
2024-05-09T04:55:38.087Z,100821.84
2024-05-09T04:56:08.984Z,100822.22
2024-05-09T04:56:39.802Z,100829.16
2024-05-09T04:57:10.603Z,100826.47
2024-05-09T04:57:41.474Z,100826.84
2024-05-09T04:58:12.447Z,100827.94
2024-05-09T04:58:43.309Z,100824.34
2024-05-09T04:59:14.246Z,100829.03
2024-05-09T04:59:45.081Z,100838.22
2024-05-09T05:00:21.852Z,100836.53
2024-05-09T05:00:59.529Z,100828.13
2024-05-09T05:01:30.460Z,100831.88
2024-05-09T05:02:01.389Z,100828.69
2024-05-09T05:02:32.370Z,100829.75
2024-05-09T05:03:05.113Z,100831.88
2024-05-09T05:03:36.185Z,100838.59
2024-05-09T05:04:07.199Z,100836.91
2024-05-09T05:04:38.222Z,100823.88
2024-05-09T05:05:09.388Z,100840.91
2024-05-09T05:05:40.712Z,100826.81
2024-05-09T05:06:11.930Z,100830.19
2024-05-09T05:06:42.737Z,100831.00
2024-05-09T05:07:13.533Z,100830.81
2024-05-09T05:07:44.377Z,100837.75
2024-05-09T05:08:17.500Z,100831.00
2024-05-09T05:08:49.324Z,100830.59
2024-05-09T05:09:20.163Z,100835.88
2024-05-09T05:09:52.050Z,100834.81
2024-05-09T05:10:32.906Z,100837.31
2024-05-09T05:11:06.483Z,100824.44
2024-05-09T05:11:37.389Z,100841.84
2024-05-09T05:12:28.334Z,100832.34
2024-05-09T05:13:18.992Z,100833.78
2024-05-09T05:13:50.579Z,100839.31
2024-05-09T05:14:21.393Z,100837.41
2024-05-09T05:14:52.326Z,100838.88
2024-05-09T05:15:23.125Z,100837.41
2024-05-09T05:15:57.862Z,100834.47
2024-05-09T05:16:29.218Z,100841.38
2024-05-09T05:17:00.044Z,100845.34
2024-05-09T05:17:31.079Z,100841.72
2024-05-09T05:18:02.181Z,100839.59
2024-05-09T05:18:33.173Z,100841.38
2024-05-09T05:19:05.855Z,100835.91
2024-05-09T05:19:38.142Z,100842.16
2024-05-09T05:20:14.936Z,100837.91
2024-05-09T05:20:46.218Z,100839.59
2024-05-09T05:21:17.214Z,100841.91
2024-05-09T05:21:48.035Z,100842.13
2024-05-09T05:22:18.842Z,100844.66
2024-05-09T05:22:49.744Z,100835.00
2024-05-09T05:23:21.783Z,100842.53
2024-05-09T05:23:52.684Z,100840.72
2024-05-09T05:24:23.487Z,100838.41
2024-05-09T05:24:54.277Z,100841.34
2024-05-09T05:25:25.122Z,100847.03
2024-05-09T05:25:56.164Z,100836.06
2024-05-09T05:26:27.067Z,100843.03
2024-05-09T05:26:57.883Z,100844.28
2024-05-09T05:27:29.812Z,100844.28
2024-05-09T05:28:00.661Z,100839.88
2024-05-09T05:28:31.445Z,100841.53
2024-05-09T05:29:02.258Z,100838.97
2024-05-09T05:29:33.100Z,100840.63
2024-05-09T05:30:07.377Z,100838.06
2024-05-09T05:30:40.527Z,100842.03
2024-05-09T05:31:11.555Z,100835.50
2024-05-09T05:31:42.414Z,100839.09
2024-05-09T05:32:13.472Z,100836.34
2024-05-09T05:32:44.540Z,100841.38
2024-05-09T05:33:19.468Z,100846.44
2024-05-09T05:33:50.735Z,100838.25
2024-05-09T05:34:21.598Z,100837.22
2024-05-09T05:34:52.444Z,100843.06
2024-05-09T05:35:23.407Z,100850.25
2024-05-09T05:35:54.747Z,100839.91
2024-05-09T05:36:25.533Z,100848.97
2024-05-09T05:36:56.339Z,100845.41
2024-05-09T05:37:27.123Z,100845.41
2024-05-09T05:37:57.931Z,100844.31
2024-05-09T05:38:28.935Z,100845.09
2024-05-09T05:38:59.742Z,100852.88
2024-05-09T05:39:30.554Z,100842.97
2024-05-09T05:40:01.345Z,100847.16
2024-05-09T05:40:36.583Z,100848.22
2024-05-09T05:41:09.242Z,100850.56
2024-05-09T05:41:40.106Z,100847.22
2024-05-09T05:42:10.950Z,100843.16
2024-05-09T05:42:42.074Z,100852.28
2024-05-09T05:43:16.963Z,100854.31
2024-05-09T05:43:47.914Z,100843.84
2024-05-09T05:44:18.800Z,100847.19
2024-05-09T05:44:49.600Z,100850.09
2024-05-09T05:45:20.468Z,100847.56
2024-05-09T05:45:51.247Z,100853.69
2024-05-09T05:46:22.128Z,100842.75
2024-05-09T05:46:52.977Z,100847.19
2024-05-09T05:47:23.973Z,100852.31
2024-05-09T05:47:55.245Z,100850.56
2024-05-09T05:48:26.412Z,100851.03
2024-05-09T05:48:57.321Z,100853.31
2024-05-09T05:49:28.281Z,100854.75
2024-05-09T05:49:59.204Z,100858.13
2024-05-09T05:50:35.548Z,100851.78
2024-05-09T05:51:08.433Z,100851.31
2024-05-09T05:51:39.297Z,100856.13
2024-05-09T05:52:11.198Z,100855.19
2024-05-09T05:52:42.357Z,100859.31
2024-05-09T05:53:13.299Z,100855.88
2024-05-09T05:53:44.327Z,100859.00
2024-05-09T05:54:15.184Z,100853.22
2024-05-09T05:54:50.584Z,100862.31
2024-05-09T05:55:21.429Z,100862.50
2024-05-09T05:55:52.392Z,100854.94
2024-05-09T05:56:23.295Z,100859.16
2024-05-09T05:56:54.098Z,100857.03
2024-05-09T05:57:24.893Z,100850.50
2024-05-09T05:57:55.675Z,100853.94
2024-05-09T05:58:26.466Z,100850.97
2024-05-09T05:58:57.319Z,100855.78
2024-05-09T05:59:28.254Z,100861.91
2024-05-09T05:59:59.158Z,100860.41
2024-05-09T06:00:37.603Z,100846.69
2024-05-09T06:01:10.486Z,100849.56
2024-05-09T06:01:41.302Z,100859.91
2024-05-09T06:02:14.914Z,100860.81
2024-05-09T06:02:45.883Z,100859.41
2024-05-09T06:03:16.765Z,100862.88